Time;durP1;ratioP1;P1;durP2;ratioP2;P2;SDS_P1;SDS_P2;PMS_P1;PMS_P2;Temp;Humidity;BMP_temperature;BMP_pressure;BME280_temperature;BME280_humidity;BME280_pressure;Samples;Min_cycle;Max_cycle;Signal;HPM_P1;HPM_P2
2023/04/11 00:00:26;;;;;;;2.95;2.00;;;20.70;65.30;;;;;;4968514;28;92492;-84
2023/04/11 00:02:53;;;;;;;3.70;2.67;;;20.80;65.20;;;;;;4976631;28;92749;-86
2023/04/11 00:05:19;;;;;;;4.30;2.50;;;20.70;65.40;;;;;;4965226;28;94178;-86
2023/04/11 00:07:45;;;;;;;3.28;2.38;;;20.70;65.40;;;;;;4963833;28;92983;-85
2023/04/11 00:10:11;;;;;;;3.08;2.00;;;20.70;65.20;;;;;;4964516;28;92432;-85
2023/04/11 00:12:37;;;;;;;3.47;2.33;;;20.70;65.40;;;;;;4965180;28;92870;-85
2023/04/11 00:15:03;;;;;;;3.25;2.05;;;20.70;65.50;;;;;;4964408;28;94009;-86
2023/04/11 00:17:30;;;;;;;2.70;1.90;;;20.70;65.60;;;;;;4957435;28;95482;-86
2023/04/11 00:20:00;;;;;;;3.40;2.28;;;20.70;65.50;;;;;;4964103;28;93109;-85
2023/04/11 00:22:26;;;;;;;2.92;2.03;;;20.70;65.70;;;;;;4960773;28;91713;-85
2023/04/11 00:24:52;;;;;;;3.35;2.33;;;20.70;65.40;;;;;;4964666;28;93642;-85
2023/04/11 00:27:17;;;;;;;2.95;2.40;;;20.70;65.50;;;;;;4966056;28;92775;-85
2023/04/11 00:29:43;;;;;;;3.78;2.15;;;20.60;66.20;;;;;;4965182;28;93404;-85
2023/04/11 00:32:08;;;;;;;3.85;2.40;;;20.60;65.40;;;;;;4963993;28;92857;-86
2023/04/11 00:34:34;;;;;;;3.80;2.30;;;20.60;65.20;;;;;;4941561;28;94867;-87
2023/04/11 00:37:00;;;;;;;3.35;1.95;;;20.60;65.10;;;;;;4964146;28;92556;-85
2023/04/11 00:39:29;;;;;;;2.65;2.08;;;20.60;65.20;;;;;;4961726;28;92862;-84
2023/04/11 00:42:06;;;;;;;2.65;2.00;;;20.60;65.10;;;;;;4964137;28;92073;-85
2023/04/11 00:44:32;;;;;;;3.45;2.05;;;20.60;65.20;;;;;;4948271;28;93826;-85
2023/04/11 00:47:00;;;;;;;4.15;2.47;;;20.60;65.10;;;;;;4968000;28;94069;-85
2023/04/11 00:49:26;;;;;;;3.83;2.35;;;20.50;65.20;;;;;;4967485;28;92714;-85
2023/04/11 00:51:52;;;;;;;3.90;2.58;;;20.60;65.30;;;;;;4967503;28;92503;-86
2023/04/11 00:54:17;;;;;;;4.07;2.60;;;20.60;65.40;;;;;;4967124;28;94655;-86
2023/04/11 00:56:43;;;;;;;3.58;2.25;;;20.50;65.30;;;;;;4967283;28;96625;-85
2023/04/11 00:59:09;;;;;;;3.00;2.20;;;20.50;65.20;;;;;;4967703;28;91940;-85
2023/04/11 01:01:35;;;;;;;2.65;2.28;;;20.50;65.40;;;;;;4912234;28;92904;-86
2023/04/11 01:04:01;;;;;;;3.17;2.08;;;20.50;65.30;;;;;;4900751;28;94744;-86
2023/04/11 01:06:29;;;;;;;2.58;2.30;;;20.50;65.30;;;;;;4880411;28;95255;-85
2023/04/11 01:08:56;;;;;;;3.23;2.20;;;20.50;65.20;;;;;;4896441;28;92587;-85
2023/04/11 01:11:22;;;;;;;3.45;2.63;;;20.50;65.20;;;;;;4893238;28;92351;-85
2023/04/11 01:13:49;;;;;;;2.70;2.15;;;20.40;65.10;;;;;;4897802;28;94557;-85
2023/04/11 01:16:20;;;;;;;3.70;2.17;;;20.50;65.30;;;;;;4894311;28;93160;-84
2023/04/11 01:18:46;;;;;;;4.35;2.20;;;20.40;65.20;;;;;;4894557;28;93600;-85
2023/04/11 01:21:12;;;;;;;4.43;2.42;;;20.50;65.30;;;;;;4896036;28;92518;-86
2023/04/11 01:23:38;;;;;;;3.25;2.15;;;20.50;65.00;;;;;;4887527;28;95053;-85
2023/04/11 01:26:04;;;;;;;2.75;2.30;;;20.40;65.10;;;;;;4866804;28;94810;-85
2023/04/11 01:28:30;;;;;;;3.70;2.17;;;20.40;65.20;;;;;;4866929;28;92041;-85
2023/04/11 01:30:56;;;;;;;3.55;2.03;;;20.40;65.10;;;;;;4860433;28;94552;-84
2023/04/11 01:33:22;;;;;;;4.43;2.20;;;20.40;65.00;;;;;;4914396;28;93250;-86
2023/04/11 01:35:48;;;;;;;3.85;2.10;;;20.40;64.90;;;;;;4907605;28;94864;-85
2023/04/11 01:38:14;;;;;;;3.50;1.88;;;20.40;65.00;;;;;;4925043;28;92614;-85
2023/04/11 01:40:40;;;;;;;2.25;2.00;;;20.40;65.10;;;;;;4923134;28;92892;-85
2023/04/11 01:43:08;;;;;;;2.85;2.08;;;20.40;65.10;;;;;;4923079;28;96685;-85
2023/04/11 01:45:35;;;;;;;3.45;2.13;;;20.40;65.00;;;;;;4924843;28;94511;-85
2023/04/11 01:48:07;;;;;;;3.60;2.05;;;20.40;65.10;;;;;;4891035;28;92951;-86
2023/04/11 01:50:33;;;;;;;3.33;1.83;;;20.40;65.20;;;;;;4874732;28;92602;-86
2023/04/11 01:55:30;;;;;;;1.98;1.67;;;20.30;65.10;;;;;;4890829;28;94867;-85
2023/04/11 01:57:56;;;;;;;3.00;2.28;;;20.30;65.20;;;;;;4918762;28;93107;-85
2023/04/11 02:00:21;;;;;;;2.30;1.83;;;20.30;65.00;;;;;;4924981;28;92033;-85
2023/04/11 02:02:47;;;;;;;2.70;1.75;;;20.30;65.00;;;;;;4924273;28;92765;-85
2023/04/11 02:05:13;;;;;;;3.17;2.00;;;20.30;65.00;;;;;;4925417;28;93412;-84
2023/04/11 02:07:38;;;;;;;4.22;2.58;;;20.30;65.00;;;;;;4925413;28;94331;-85
2023/04/11 02:10:06;;;;;;;3.88;2.30;;;20.30;64.90;;;;;;4917192;28;92175;-85
2023/04/11 02:12:31;;;;;;;3.03;2.00;;;20.30;65.00;;;;;;4924529;28;96455;-85
2023/04/11 02:14:57;;;;;;;3.20;2.10;;;20.20;64.90;;;;;;4925066;28;93230;-85
2023/04/11 02:17:24;;;;;;;2.65;1.83;;;20.30;64.90;;;;;;4925186;28;92560;-84
2023/04/11 02:19:50;;;;;;;2.83;2.15;;;20.20;64.90;;;;;;4943772;28;92513;-85
2023/04/11 02:22:16;;;;;;;3.50;1.98;;;20.20;64.90;;;;;;4965850;28;93485;-84
2023/04/11 02:24:42;;;;;;;4.15;2.28;;;20.20;64.80;;;;;;4966082;28;95663;-86
2023/04/11 02:27:09;;;;;;;2.83;1.85;;;20.20;64.80;;;;;;4959099;28;91964;-86
2023/04/11 02:29:35;;;;;;;3.10;2.13;;;20.20;64.90;;;;;;4948790;28;92920;-85
2023/04/11 02:32:01;;;;;;;2.80;2.10;;;20.20;64.90;;;;;;4962900;28;95990;-85
2023/04/11 02:34:26;;;;;;;2.78;1.80;;;20.20;64.90;;;;;;4965967;28;93002;-85
2023/04/11 02:36:52;;;;;;;4.50;2.28;;;20.20;64.90;;;;;;4963487;28;93186;-85
2023/04/11 02:39:22;;;;;;;2.78;1.92;;;20.20;64.80;;;;;;4962505;28;92473;-85
2023/04/11 02:41:47;;;;;;;3.13;1.83;;;20.20;64.80;;;;;;4966553;28;93660;-85
2023/04/11 02:44:13;;;;;;;2.67;2.10;;;20.20;64.70;;;;;;4964386;28;93262;-84
2023/04/11 02:46:39;;;;;;;2.55;1.63;;;20.20;64.60;;;;;;4909867;28;92884;-85
2023/04/11 02:49:05;;;;;;;4.40;2.25;;;20.20;64.60;;;;;;4910229;28;92441;-84
2023/04/11 02:51:31;;;;;;;2.55;1.80;;;20.20;64.60;;;;;;4911320;28;93115;-85
2023/04/11 02:53:57;;;;;;;2.63;1.85;;;20.20;64.70;;;;;;4912170;28;93773;-85
2023/04/11 02:56:23;;;;;;;3.35;2.20;;;20.20;64.80;;;;;;4911733;28;93442;-84
2023/04/11 02:58:48;;;;;;;3.30;2.20;;;20.10;64.70;;;;;;4910007;28;92064;-85
2023/04/11 03:01:17;;;;;;;2.47;1.70;;;20.10;64.60;;;;;;4908923;28;94054;-85
2023/04/11 03:03:43;;;;;;;3.33;2.17;;;20.20;64.70;;;;;;4907885;28;92566;-85
2023/04/11 03:06:09;;;;;;;2.75;1.90;;;20.10;64.50;;;;;;4911528;28;92841;-85
2023/04/11 03:08:36;;;;;;;3.17;2.00;;;20.10;64.40;;;;;;4909285;28;92089;-85
2023/04/11 03:11:05;;;;;;;3.35;2.05;;;20.10;64.60;;;;;;4906885;28;93233;-85
2023/04/11 03:13:31;;;;;;;2.53;1.73;;;20.10;64.60;;;;;;4908622;28;92792;-85
2023/04/11 03:15:57;;;;;;;3.50;1.77;;;20.10;64.50;;;;;;4909117;28;92780;-85
2023/04/11 03:18:23;;;;;;;4.25;2.33;;;20.10;64.70;;;;;;4969846;28;93526;-86
2023/04/11 03:20:50;;;;;;;3.58;2.08;;;20.10;64.60;;;;;;4961628;28;95177;-85
2023/04/11 03:23:15;;;;;;;2.50;1.48;;;20.10;64.60;;;;;;4944633;28;95860;-85
2023/04/11 03:25:43;;;;;;;2.42;1.90;;;20.10;64.60;;;;;;4962518;28;92924;-85
2023/04/11 03:28:09;;;;;;;2.42;1.73;;;20.10;64.60;;;;;;4961901;28;92185;-84
2023/04/11 03:30:39;;;;;;;3.45;2.03;;;20.10;64.50;;;;;;4963346;28;93822;-84
2023/04/11 03:33:04;;;;;;;4.03;1.98;;;20.10;64.50;;;;;;4944881;28;94794;-85
2023/04/11 03:35:30;;;;;;;3.47;2.05;;;20.10;64.60;;;;;;4961474;28;92887;-85
2023/04/11 03:37:56;;;;;;;3.60;1.88;;;20.10;64.50;;;;;;4963971;28;91677;-85
2023/04/11 03:40:22;;;;;;;3.35;1.83;;;20.10;64.40;;;;;;4961088;28;93461;-85
2023/04/11 03:42:48;;;;;;;2.70;1.73;;;20.00;64.40;;;;;;4962817;28;96019;-84
2023/04/11 03:45:14;;;;;;;3.17;1.63;;;20.00;64.40;;;;;;4963190;28;93574;-84
2023/04/11 03:47:40;;;;;;;1.95;1.58;;;20.00;64.50;;;;;;4941011;28;92880;-86
2023/04/11 03:50:06;;;;;;;3.50;2.05;;;20.00;64.50;;;;;;4942581;28;94340;-84
2023/04/11 03:52:33;;;;;;;2.20;1.63;;;20.00;64.50;;;;;;4919728;28;95505;-85
2023/04/11 03:54:59;;;;;;;3.53;2.20;;;20.10;64.60;;;;;;4932425;28;92031;-85
2023/04/11 03:57:26;;;;;;;2.58;1.80;;;20.00;64.50;;;;;;4933989;28;92957;-84
2023/04/11 03:59:52;;;;;;;3.53;2.05;;;20.00;64.70;;;;;;4929305;28;93314;-84
2023/04/11 04:02:18;;;;;;;2.67;2.08;;;20.00;64.60;;;;;;4935073;28;92277;-85
2023/04/11 04:04:53;;;;;;;3.10;1.95;;;20.00;64.30;;;;;;4929754;28;93110;-85
2023/04/11 04:07:25;;;;;;;2.90;1.80;;;20.00;64.50;;;;;;4929977;28;93080;-85
2023/04/11 04:09:51;;;;;;;3.42;1.70;;;20.00;64.40;;;;;;4928502;28;93709;-84
2023/04/11 04:12:17;;;;;;;2.85;2.05;;;20.00;64.70;;;;;;4930707;28;94441;-84
2023/04/11 04:14:43;;;;;;;2.58;2.03;;;20.00;64.60;;;;;;4929568;28;92712;-85
2023/04/11 04:17:09;;;;;;;2.90;2.00;;;20.00;64.70;;;;;;4932678;28;92446;-85
2023/04/11 04:19:35;;;;;;;3.67;1.88;;;20.00;64.40;;;;;;4934123;28;94809;-85
2023/04/11 04:22:01;;;;;;;3.05;1.92;;;20.00;64.50;;;;;;4926123;28;96744;-85
2023/04/11 04:24:26;;;;;;;2.83;1.83;;;20.00;64.60;;;;;;4942458;28;93148;-86
2023/04/11 04:26:52;;;;;;;3.42;1.88;;;19.90;64.50;;;;;;4964504;28;92385;-84
2023/04/11 04:29:18;;;;;;;2.75;1.98;;;19.90;64.50;;;;;;4964800;28;93234;-84
2023/04/11 04:31:51;;;;;;;4.93;2.10;;;19.90;64.50;;;;;;4959434;28;93022;-85
2023/04/11 04:34:20;;;;;;;3.72;1.98;;;19.90;64.30;;;;;;4963172;28;94111;-85
2023/04/11 04:36:47;;;;;;;2.13;1.60;;;19.90;64.50;;;;;;4965031;28;92957;-85
2023/04/11 04:39:17;;;;;;;3.40;1.88;;;19.90;64.40;;;;;;4925974;28;95416;-85
2023/04/11 04:41:56;;;;;;;2.45;1.70;;;19.90;64.50;;;;;;4923573;28;94638;-85
2023/04/11 04:44:22;;;;;;;2.88;1.75;;;19.90;64.40;;;;;;4925980;28;92954;-85
2023/04/11 04:46:56;;;;;;;3.17;1.65;;;19.90;64.40;;;;;;4926302;28;92510;-85
2023/04/11 04:49:22;;;;;;;3.47;2.05;;;19.90;64.50;;;;;;4925773;28;94363;-85
2023/04/11 04:51:48;;;;;;;2.60;1.88;;;19.90;64.20;;;;;;4921380;28;98537;-85
2023/04/11 04:54:17;;;;;;;2.90;1.83;;;19.90;64.40;;;;;;4925647;28;92780;-85
2023/04/11 04:56:43;;;;;;;3.10;1.75;;;19.90;64.50;;;;;;4925676;28;93038;-85
2023/04/11 04:59:13;;;;;;;3.70;1.77;;;19.90;64.30;;;;;;4925002;28;96013;-85
2023/04/11 05:01:39;;;;;;;3.40;1.77;;;19.90;64.30;;;;;;4896885;28;94374;-85
2023/04/11 05:04:04;;;;;;;2.30;1.70;;;19.90;64.30;;;;;;4897573;28;92828;-86
2023/04/11 05:06:30;;;;;;;4.57;1.92;;;19.80;64.20;;;;;;4892008;28;92845;-85
2023/04/11 05:09:00;;;;;;;3.67;2.00;;;19.90;63.80;;;;;;4872079;28;97012;-86
2023/04/11 05:11:27;;;;;;;4.30;2.00;;;19.90;64.90;;;;;;4909513;28;92654;-85
2023/04/11 05:13:53;;;;;;;3.53;2.00;;;19.90;64.00;;;;;;4911763;28;92852;-85
2023/04/11 05:16:19;;;;;;;2.85;1.50;;;19.90;64.00;;;;;;4907853;28;92209;-86
2023/04/11 05:18:45;;;;;;;3.55;1.58;;;19.90;64.00;;;;;;4905629;28;93452;-86
2023/04/11 05:21:12;;;;;;;2.47;1.52;;;20.00;64.00;;;;;;4907472;28;93831;-85
2023/04/11 05:23:38;;;;;;;3.88;1.80;;;20.10;63.80;;;;;;4911477;28;93470;-85
2023/04/11 05:26:05;;;;;;;2.80;1.70;;;20.10;64.00;;;;;;4912331;28;93120;-84
2023/04/11 05:28:31;;;;;;;2.47;1.48;;;20.10;63.80;;;;;;4913489;28;92882;-85
2023/04/11 05:30:57;;;;;;;3.17;1.80;;;20.20;63.60;;;;;;4909439;28;92700;-84
2023/04/11 05:33:23;;;;;;;3.22;1.60;;;20.20;63.50;;;;;;4915604;28;92599;-85
2023/04/11 05:35:49;;;;;;;3.42;2.03;;;20.20;63.50;;;;;;4914906;28;93096;-86
2023/04/11 05:38:15;;;;;;;3.38;1.83;;;20.20;63.50;;;;;;4913424;28;93635;-85
2023/04/11 05:40:41;;;;;;;3.22;1.40;;;20.30;63.20;;;;;;4954352;28;92580;-87
2023/04/11 05:43:07;;;;;;;3.33;1.73;;;20.40;64.00;;;;;;4966673;28;92448;-87
2023/04/11 05:45:33;;;;;;;3.70;1.70;;;20.40;63.10;;;;;;4969403;28;92548;-89
2023/04/11 05:47:59;;;;;;;4.30;1.77;;;20.50;62.50;;;;;;4942632;28;96188;-87
2023/04/11 05:50:25;;;;;;;8.88;2.38;;;20.60;62.60;;;;;;4946943;28;93214;-85
2023/04/11 05:52:50;;;;;;;5.47;2.00;;;20.60;62.50;;;;;;4945749;28;92172;-86
2023/04/11 05:55:16;;;;;;;3.95;1.88;;;20.60;62.30;;;;;;4930828;28;93217;-85
2023/04/11 05:57:42;;;;;;;5.35;2.15;;;20.70;62.30;;;;;;4947052;28;93279;-82
2023/04/11 06:00:13;;;;;;;6.18;2.35;;;20.70;62.60;;;;;;4929652;28;95566;-86
2023/04/11 06:02:41;;;;;;;8.57;2.58;;;20.80;62.70;;;;;;4943344;28;92956;-89
2023/04/11 06:05:10;;;;;;;11.45;2.83;;;20.80;62.10;;;;;;4926121;28;91976;-86
2023/04/11 06:07:39;;;;;;;6.85;2.97;;;20.90;62.70;;;;;;4926693;28;94858;-86
2023/04/11 06:10:06;;;;;;;10.35;2.63;;;21.00;62.50;;;;;;4908086;28;94999;-85
2023/04/11 06:12:32;;;;;;;11.75;3.50;;;21.00;62.60;;;;;;4895353;28;93231;-84
2023/04/11 06:14:58;;;;;;;9.25;2.80;;;21.00;61.10;;;;;;4892631;28;92406;-86
2023/04/11 06:17:23;;;;;;;18.60;4.00;;;21.10;62.10;;;;;;4893917;28;95989;-86
2023/04/11 06:19:49;;;;;;;13.65;3.35;;;21.10;62.00;;;;;;4913275;28;92990;-85
2023/04/11 06:22:15;;;;;;;14.98;3.83;;;21.20;60.40;;;;;;4910729;28;92823;-85
2023/04/11 06:24:41;;;;;;;11.57;3.40;;;21.20;61.70;;;;;;4906607;28;93206;-86
2023/04/11 06:27:10;;;;;;;16.40;3.63;;;21.30;61.50;;;;;;4884314;28;94842;-84
2023/04/11 06:29:36;;;;;;;19.80;3.60;;;21.30;61.00;;;;;;4900985;28;93081;-86
2023/04/11 06:32:02;;;;;;;13.30;3.30;;;21.30;62.00;;;;;;4854479;28;93142;-86
2023/04/11 06:34:27;;;;;;;11.30;3.38;;;21.20;62.10;;;;;;4851461;28;92333;-86
2023/04/11 06:36:53;;;;;;;12.25;3.15;;;21.20;62.00;;;;;;4881398;28;96010;-85
2023/04/11 06:39:19;;;;;;;10.10;3.22;;;21.30;62.20;;;;;;4888610;28;93719;-86
2023/04/11 06:41:45;;;;;;;9.68;3.63;;;21.30;62.00;;;;;;4887041;28;93204;-88
2023/04/11 06:44:11;;;;;;;10.63;3.45;;;21.30;62.30;;;;;;4883792;28;92920;-85
2023/04/11 06:46:37;;;;;;;8.82;3.10;;;21.30;62.10;;;;;;4887866;28;92999;-85
2023/04/11 06:49:06;;;;;;;8.63;3.00;;;21.30;62.30;;;;;;4891732;28;93385;-86
2023/04/11 06:51:35;;;;;;;10.00;3.38;;;21.30;62.50;;;;;;4926915;28;93009;-85
2023/04/11 06:54:01;;;;;;;;;;;21.30;62.50;;;;;;4914348;28;92276;-86
2023/04/11 06:56:27;;;;;;;9.68;3.10;;;21.40;62.50;;;;;;4921092;28;96548;-87
2023/04/11 06:58:53;;;;;;;10.60;3.08;;;21.40;62.10;;;;;;4916040;28;93358;-86
2023/04/11 07:01:20;;;;;;;8.65;3.20;;;21.50;62.40;;;;;;4914010;28;93950;-82
2023/04/11 07:03:46;;;;;;;9.63;2.88;;;21.60;61.80;;;;;;4934126;28;92887;-85
2023/04/11 07:06:12;;;;;;;12.27;3.47;;;21.50;61.70;;;;;;4938959;28;94798;-85
2023/04/11 07:08:37;;;;;;;9.68;2.55;;;21.50;62.10;;;;;;4940631;28;92134;-86
2023/04/11 07:11:03;;;;;;;10.57;3.45;;;21.50;62.10;;;;;;4942546;28;92559;-85
2023/04/11 07:13:29;;;;;;;10.98;2.92;;;21.50;62.20;;;;;;4923676;28;92820;-85
2023/04/11 07:15:55;;;;;;;14.18;3.15;;;21.50;62.30;;;;;;4939110;28;93635;-86
2023/04/11 07:18:20;;;;;;;10.55;3.22;;;21.50;62.30;;;;;;4943094;28;96981;-83
2023/04/11 07:20:47;;;;;;;16.13;3.35;;;21.50;62.40;;;;;;4914154;28;92718;-85
2023/04/11 07:23:13;;;;;;;10.23;3.00;;;21.50;62.10;;;;;;4939414;28;92703;-85
2023/04/11 07:25:39;;;;;;;8.93;3.33;;;21.50;62.10;;;;;;4957668;28;94731;-84
2023/04/11 07:28:07;;;;;;;6.88;2.63;;;21.60;62.30;;;;;;4954905;28;96376;-84
2023/04/11 07:30:37;;;;;;;13.60;4.10;;;21.60;63.00;;;;;;4977501;28;92733;-83
2023/04/11 07:33:02;;;;;;;8.75;3.30;;;21.60;62.20;;;;;;4978196;28;92790;-83
2023/04/11 07:35:29;;;;;;;10.50;3.13;;;21.60;62.20;;;;;;4982428;28;92919;-83
2023/04/11 07:37:56;;;;;;;8.80;2.92;;;21.60;62.40;;;;;;4983710;28;92647;-85
2023/04/11 07:40:22;;;;;;;10.35;3.13;;;21.60;62.70;;;;;;4975156;28;92580;-83
2023/04/11 07:42:47;;;;;;;10.55;3.25;;;21.60;62.40;;;;;;4965496;28;91777;-83
2023/04/11 07:45:13;;;;;;;8.15;2.95;;;21.60;62.50;;;;;;4981990;28;94145;-83
2023/04/11 07:47:39;;;;;;;9.18;3.15;;;21.60;62.60;;;;;;4981960;28;92828;-84
2023/04/11 07:50:05;;;;;;;7.93;2.65;;;21.60;62.40;;;;;;4971003;28;93776;-84
2023/04/11 07:52:31;;;;;;;9.02;2.92;;;21.60;62.70;;;;;;4958781;28;92842;-84
2023/04/11 07:54:56;;;;;;;12.00;3.00;;;21.60;62.50;;;;;;4980110;28;95088;-84
2023/04/11 07:57:22;;;;;;;9.32;3.35;;;21.60;62.80;;;;;;4985229;28;94093;-85
2023/04/11 07:59:48;;;;;;;13.23;3.40;;;21.60;63.10;;;;;;4986365;28;92680;-85
2023/04/11 08:02:13;;;;;;;8.30;2.83;;;21.70;63.00;;;;;;4983600;28;92135;-84
2023/04/11 08:04:39;;;;;;;10.25;3.33;;;21.70;63.20;;;;;;4986372;28;93266;-84
2023/04/11 08:07:05;;;;;;;7.68;3.15;;;21.70;63.20;;;;;;4984373;28;94910;-84
2023/04/11 08:09:31;;;;;;;11.30;2.83;;;21.70;63.00;;;;;;4986303;28;92588;-84
2023/04/11 08:11:57;;;;;;;7.80;2.83;;;21.80;63.50;;;;;;4993134;28;92509;-88
2023/04/11 08:14:23;;;;;;;9.80;3.33;;;21.80;63.40;;;;;;4989531;28;94809;-85
2023/04/11 08:16:51;;;;;;;17.08;3.20;;;21.90;61.50;;;;;;4986266;28;94725;-86
2023/04/11 08:19:17;;;;;;;7.07;2.28;;;21.90;62.40;;;;;;4986521;28;92352;-87
2023/04/11 08:21:42;;;;;;;10.70;2.78;;;21.90;63.10;;;;;;4985583;28;92918;-83
2023/04/11 08:24:08;;;;;;;6.85;2.63;;;21.90;63.10;;;;;;4967156;28;95223;-85
2023/04/11 08:26:34;;;;;;;9.98;3.28;;;21.90;63.30;;;;;;4986865;28;92867;-85
2023/04/11 08:29:00;;;;;;;9.50;2.75;;;21.90;63.40;;;;;;4987201;28;92483;-86
2023/04/11 08:31:27;;;;;;;11.55;3.13;;;21.90;62.70;;;;;;4986060;28;94268;-86
2023/04/11 08:33:53;;;;;;;10.35;2.72;;;22.00;62.80;;;;;;4986161;28;94284;-85
2023/04/11 08:36:18;;;;;;;9.68;2.72;;;22.00;62.60;;;;;;4979094;28;93107;-83
2023/04/11 08:38:44;;;;;;;9.40;3.08;;;22.00;63.10;;;;;;4988919;28;94039;-89
2023/04/11 08:41:11;;;;;;;11.00;3.25;;;22.00;63.30;;;;;;4986724;28;92355;-87
2023/04/11 08:43:43;;;;;;;10.75;3.03;;;21.90;62.80;;;;;;4988378;28;95093;-85
2023/04/11 08:46:08;;;;;;;13.98;2.88;;;22.00;62.50;;;;;;4968141;28;94490;-86
2023/04/11 08:48:34;;;;;;;11.70;3.13;;;22.10;62.30;;;;;;4985739;28;92981;-86
2023/04/11 08:51:01;;;;;;;11.48;2.97;;;22.10;62.00;;;;;;4985257;28;92542;-87
2023/04/11 08:53:28;;;;;;;10.70;3.63;;;22.00;62.50;;;;;;4987546;28;93525;-87
2023/04/11 08:55:53;;;;;;;13.50;3.42;;;22.10;62.30;;;;;;4968401;28;96666;-87
2023/04/11 08:58:19;;;;;;;11.48;2.97;;;22.10;62.50;;;;;;4984132;28;93575;-87
2023/04/11 09:00:45;;;;;;;11.32;2.60;;;22.20;62.10;;;;;;4965312;28;93020;-85
2023/04/11 09:03:14;;;;;;;13.70;3.17;;;22.20;62.40;;;;;;4977533;28;95075;-85
2023/04/11 09:05:42;;;;;;;12.25;3.35;;;22.30;60.60;;;;;;4971678;28;93654;-85
2023/04/11 09:08:12;;;;;;;12.10;3.55;;;22.20;61.70;;;;;;4930797;28;92833;-86
2023/04/11 09:10:39;;;;;;;17.42;3.72;;;22.20;61.90;;;;;;4933106;28;92749;-85
2023/04/11 09:13:21;;;;;;;11.85;2.95;;;22.20;61.80;;;;;;4933576;28;92738;-84
2023/04/11 09:15:47;;;;;;;11.25;3.25;;;22.20;61.80;;;;;;4931270;28;92439;-85
2023/04/11 09:18:35;;;;;;;14.95;3.58;;;22.20;61.60;;;;;;4892803;28;92814;-84
2023/04/11 09:21:03;;;;;;;11.43;3.53;;;22.20;61.70;;;;;;4893729;28;91717;-85
2023/04/11 09:23:29;;;;;;;11.20;3.70;;;22.10;61.80;;;;;;4892147;28;93132;-84
2023/04/11 09:25:55;;;;;;;14.40;3.83;;;22.10;61.90;;;;;;4878538;28;97079;-85
2023/04/11 09:28:21;;;;;;;14.38;3.80;;;22.10;61.40;;;;;;4890534;28;94006;-84
2023/04/11 09:30:51;;;;;;;12.35;3.90;;;22.20;61.30;;;;;;4893222;28;93326;-86
2023/04/11 09:33:28;;;;;;;13.57;3.85;;;22.10;61.20;;;;;;4892071;28;93363;-84
2023/04/11 09:35:55;;;;;;;11.65;3.40;;;22.10;61.20;;;;;;4871842;28;95626;-85
2023/04/11 09:38:32;;;;;;;9.80;2.92;;;22.10;60.90;;;;;;4876423;28;92051;-84
2023/04/11 09:40:59;;;;;;;9.93;3.30;;;22.10;61.40;;;;;;4912210;28;92680;-84
2023/04/11 09:43:25;;;;;;;13.15;3.20;;;22.10;61.60;;;;;;4893918;28;94196;-85
2023/04/11 09:46:10;;;;;;;9.57;3.15;;;22.10;61.30;;;;;;4911954;28;92723;-85
2023/04/11 09:48:37;;;;;;;12.13;3.47;;;22.10;61.40;;;;;;4919118;28;93193;-85
2023/04/11 09:51:05;;;;;;;14.05;3.97;;;22.10;61.30;;;;;;4925175;28;92738;-84
2023/04/11 09:53:33;;;;;;;10.30;3.50;;;22.10;61.40;;;;;;4949379;28;94068;-84
2023/04/11 09:55:59;;;;;;;9.57;3.08;;;22.10;61.50;;;;;;4951555;28;94263;-86
2023/04/11 09:58:26;;;;;;;10.35;3.47;;;22.10;61.60;;;;;;4950702;28;92631;-84
2023/04/11 10:00:54;;;;;;;9.93;2.97;;;22.10;61.90;;;;;;4947840;28;92684;-84
2023/04/11 10:03:22;;;;;;;12.43;4.20;;;22.00;61.60;;;;;;4925483;28;94725;-85
2023/04/11 10:05:53;;;;;;;10.30;3.53;;;22.00;61.90;;;;;;4947860;28;94728;-85
2023/04/11 10:08:31;;;;;;;8.52;3.78;;;22.00;61.90;;;;;;4972917;28;92776;-84
2023/04/11 10:11:02;;;;;;;15.73;3.63;;;22.00;61.70;;;;;;4962280;28;92254;-85
2023/04/11 10:13:34;;;;;;;10.77;3.03;;;21.90;61.70;;;;;;4973999;28;93365;-84
2023/04/11 10:16:13;;;;;;;12.00;3.35;;;21.90;61.70;;;;;;4971242;28;93379;-84
2023/04/11 10:18:51;;;;;;;10.02;3.78;;;21.90;61.90;;;;;;4971619;28;93469;-83
2023/04/11 10:21:29;;;;;;;11.32;3.58;;;21.80;62.00;;;;;;4973324;28;92492;-87
2023/04/11 10:24:14;;;;;;;9.63;3.30;;;21.80;60.90;;;;;;4971062;28;95810;-85
2023/04/11 10:26:58;;;;;;;10.80;3.25;;;21.90;60.70;;;;;;4962409;28;93988;-86
2023/04/11 10:29:32;;;;;;;14.57;4.22;;;21.90;61.20;;;;;;4962588;28;92226;-84
2023/04/11 10:32:19;;;;;;;9.52;3.92;;;21.90;61.20;;;;;;4953515;28;92940;-86
2023/04/11 10:34:53;;;;;;;12.25;2.83;;;21.90;61.40;;;;;;4972038;28;98162;-85
2023/04/11 10:37:35;;;;;;;12.60;3.85;;;22.00;61.50;;;;;;4969123;28;92821;-87
2023/04/11 10:40:04;;;;;;;7.78;3.33;;;22.00;61.80;;;;;;4962788;28;92632;-85
2023/04/11 10:42:44;;;;;;;13.32;3.47;;;22.00;61.70;;;;;;4953146;28;92724;-87
2023/04/11 10:45:27;;;;;;;10.90;3.25;;;22.00;61.90;;;;;;4927297;28;97493;-86
2023/04/11 10:47:56;;;;;;;16.95;3.78;;;21.90;62.30;;;;;;4934720;28;94362;-87
2023/04/11 10:50:33;;;;;;;12.83;3.80;;;21.90;62.30;;;;;;4929007;28;92354;-90
2023/04/11 10:53:00;;;;;;;14.02;3.45;;;21.90;62.90;;;;;;4928992;28;93044;-89
2023/04/11 10:55:28;;;;;;;17.52;3.92;;;21.90;63.10;;;;;;4926837;28;93909;-86
2023/04/11 10:58:15;;;;;;;11.38;3.88;;;21.90;63.10;;;;;;4925805;28;94650;-86
2023/04/11 11:00:50;;;;;;;12.70;3.53;;;21.90;63.00;;;;;;4866821;28;93100;-87
2023/04/11 11:03:31;;;;;;;10.82;3.13;;;21.90;63.20;;;;;;4882572;28;91989;-86
2023/04/11 11:06:05;;;;;;;13.10;3.35;;;21.90;61.90;;;;;;4886964;28;93340;-88
2023/04/11 11:08:36;;;;;;;13.05;3.67;;;21.90;61.60;;;;;;4864375;28;95141;-86
2023/04/11 11:11:05;;;;;;;13.88;3.60;;;21.90;62.40;;;;;;4865576;28;93622;-88
2023/04/11 11:13:51;;;;;;;11.80;4.20;;;21.80;62.20;;;;;;4848550;28;92617;-88
2023/04/11 11:16:23;;;;;;;11.18;3.63;;;21.80;61.90;;;;;;4857765;28;93524;-88
2023/04/11 11:18:51;;;;;;;12.70;3.20;;;21.80;60.90;;;;;;4867591;28;93615;-88
2023/04/11 11:21:20;;;;;;;12.38;3.40;;;21.90;61.40;;;;;;4867003;28;92110;-85
2023/04/11 11:24:12;;;;;;;11.63;3.88;;;22.00;59.90;;;;;;4869412;28;92948;-84
2023/04/11 11:26:42;;;;;;;12.98;3.53;;;22.00;60.60;;;;;;4824665;29;93533;-84
2023/04/11 11:29:09;;;;;;;10.45;3.20;;;22.00;61.10;;;;;;4810630;29;93703;-83
2023/04/11 11:31:46;;;;;;;13.70;3.45;;;22.00;61.00;;;;;;4835507;29;92310;-83
2023/04/11 11:34:12;;;;;;;10.05;3.15;;;22.00;60.80;;;;;;4849380;28;92755;-84
2023/04/11 11:36:44;;;;;;;9.35;3.10;;;22.00;61.20;;;;;;4842848;28;98333;-85
2023/04/11 11:39:10;;;;;;;16.35;4.10;;;21.90;61.30;;;;;;4848266;28;93181;-85
2023/04/11 11:41:37;;;;;;;12.98;3.20;;;21.90;61.10;;;;;;4850899;28;92611;-88
2023/04/11 11:44:04;;;;;;;9.45;3.22;;;22.00;61.60;;;;;;4858947;28;92924;-85
2023/04/11 11:46:32;;;;;;;9.23;3.28;;;22.00;60.70;;;;;;4818567;29;95937;-83
2023/04/11 11:49:00;;;;;;;9.82;2.95;;;22.00;60.00;;;;;;4808164;29;96621;-85
2023/04/11 11:51:38;;;;;;;13.10;3.92;;;22.00;60.60;;;;;;4837989;29;92930;-84
2023/04/11 11:54:07;;;;;;;8.13;2.80;;;21.90;61.20;;;;;;4844861;29;91719;-85
2023/04/11 11:56:33;;;;;;;13.05;2.97;;;22.00;61.20;;;;;;4845000;29;94970;-85
2023/04/11 11:58:59;;;;;;;7.80;2.95;;;22.10;61.20;;;;;;4816530;29;93766;-84
2023/04/11 12:01:24;;;;;;;11.68;3.28;;;22.20;61.00;;;;;;4820030;29;93832;-84
2023/04/11 12:03:52;;;;;;;10.25;3.45;;;22.20;61.00;;;;;;4831551;28;93542;-86
2023/04/11 12:06:19;;;;;;;11.85;3.13;;;22.30;60.90;;;;;;4884118;28;96732;-85
2023/04/11 12:08:50;;;;;;;9.45;3.10;;;22.40;61.20;;;;;;4866648;28;92978;-85
2023/04/11 12:11:17;;;;;;;8.82;2.83;;;22.40;60.80;;;;;;4867613;28;92759;-86
2023/04/11 12:13:44;;;;;;;12.40;3.13;;;22.40;60.40;;;;;;4856766;28;92743;-85
2023/04/11 12:16:10;;;;;;;7.18;3.10;;;22.40;60.20;;;;;;4902370;28;94282;-84
2023/04/11 12:18:40;;;;;;;9.93;2.75;;;22.40;60.50;;;;;;4911739;28;94945;-85
2023/04/11 12:21:06;;;;;;;7.97;2.95;;;22.40;60.30;;;;;;4911664;28;93002;-84
2023/04/11 12:23:32;;;;;;;9.82;2.92;;;22.50;60.10;;;;;;4867255;28;92437;-84
2023/04/11 12:25:57;;;;;;;10.25;3.03;;;22.50;60.70;;;;;;4869968;28;94729;-84
2023/04/11 12:28:23;;;;;;;8.23;2.63;;;22.50;60.70;;;;;;4855598;28;94745;-85
2023/04/11 12:30:49;;;;;;;8.32;2.67;;;22.50;60.70;;;;;;4875049;28;92701;-84
2023/04/11 12:33:15;;;;;;;10.05;2.67;;;22.40;60.80;;;;;;4876810;28;93634;-85
2023/04/11 12:35:40;;;;;;;15.00;3.25;;;22.40;60.80;;;;;;4878337;28;95710;-84
2023/04/11 12:38:06;;;;;;;10.95;3.30;;;22.40;60.20;;;;;;4878060;28;95835;-85
2023/04/11 12:40:32;;;;;;;11.15;2.92;;;22.40;60.00;;;;;;4864120;28;92320;-85
2023/04/11 12:42:58;;;;;;;22.63;6.72;;;22.40;60.60;;;;;;4880092;28;92025;-86
2023/04/11 12:45:24;;;;;;;28.17;8.57;;;22.30;60.80;;;;;;4911278;28;93077;-85
2023/04/11 12:47:50;;;;;;;18.13;5.10;;;22.30;60.90;;;;;;4917665;28;93376;-85